Wetterdaten: Dienstag, 23.09.2014
Datum Zeit Temperatur Luftfeuchte Luftdruck Regen Wind Richtung Richtung Taupunkt Windchill Windben
23.09.2014 00:00 5,8 C 88 % 1022,7 hPa 0,0 l/m 0,0 km/h (0 Bft) S-SO 157 4,0 C 22,8 C 0,0 km/h (0 Bft)
23.09.2014 00:10 5,6 C 87 % 1022,8 hPa 0,0 l/m 0,0 km/h (0 Bft) S-SO 157 3,6 C 22,8 C 0,0 km/h (0 Bft)
23.09.2014 00:20 5,6 C 87 % 1022,8 hPa 0,0 l/m 0,0 km/h (0 Bft) S-SO 157 3,6 C 22,8 C 0,0 km/h (0 Bft)
23.09.2014 00:30 5,5 C 87 % 1023,0 hPa 0,0 l/m 0,0 km/h (0 Bft) S-SO 157 3,5 C 22,8 C 0,0 km/h (0 Bft)
23.09.2014 00:40 5,4 C 88 % 1023,0 hPa 0,0 l/m 0,0 km/h (0 Bft) S-SO 157 3,6 C 22,8 C 0,0 km/h (0 Bft)
23.09.2014 00:50 5,4 C 88 % 1022,7 hPa 0,0 l/m 0,0 km/h (0 Bft) S-SO 157 3,6 C 22,8 C 0,0 km/h (0 Bft)
23.09.2014 01:00 5,3 C 87 % 1022,7 hPa 0,0 l/m 0,0 km/h (0 Bft) S-SO 157 3,3 C 22,8 C 0,0 km/h (0 Bft)
23.09.2014 01:10 5,0 C 88 % 1023,0 hPa 0,0 l/m 0,0 km/h (0 Bft) S-SO 157 3,2 C 22,8 C 0,0 km/h (0 Bft)
23.09.2014 01:20 4,8 C 88 % 1023,0 hPa 0,0 l/m 0,0 km/h (0 Bft) S-SO 157 3,0 C 22,8 C 0,0 km/h (0 Bft)
23.09.2014 01:28 4,6 C 89 % 1022,5 hPa 0,0 l/m 0,0 km/h (0 Bft) S-SO 157 2,9 C 22,8 C 0,0 km/h (0 Bft)
23.09.2014 01:30 4,6 C 89 % 1022,5 hPa 0,0 l/m 0,0 km/h (0 Bft) S-SO 157 2,9 C 22,8 C 0,0 km/h (0 Bft)
23.09.2014 01:40 4,1 C 89 % 1022,5 hPa 0,0 l/m 0,0 km/h (0 Bft) S-SO 157 2,5 C 22,8 C 0,0 km/h (0 Bft)
23.09.2014 01:50 3,8 C 89 % 1022,4 hPa 0,0 l/m 0,0 km/h (0 Bft) S-SO 157 2,2 C 22,8 C 0,0 km/h (0 Bft)
23.09.2014 02:00 3,8 C 90 % 1022,4 hPa 0,0 l/m 0,0 km/h (0 Bft) S-SO 157 2,3 C 22,8 C 0,0 km/h (0 Bft)
23.09.2014 02:10 3,8 C 90 % 1022,8 hPa 0,0 l/m 0,0 km/h (0 Bft) S-SO 157 2,3 C 22,8 C 0,0 km/h (0 Bft)
23.09.2014 02:20 3,5 C 89 % 1022,8 hPa 0,0 l/m 0,0 km/h (0 Bft) S-SO 157 1,9 C 22,8 C 0,0 km/h (0 Bft)
23.09.2014 02:30 2,9 C 91 % 1022,6 hPa 0,0 l/m 0,0 km/h (0 Bft) S-SO 157 1,6 C 22,8 C 0,0 km/h (0 Bft)
23.09.2014 02:40 2,8 C 91 % 1022,6 hPa 0,0 l/m 0,0 km/h (0 Bft) S-SO 157 1,5 C 22,8 C 0,0 km/h (0 Bft)
23.09.2014 02:50 2,7 C 91 % 1022,6 hPa 0,0 l/m 0,0 km/h (0 Bft) S-SO 157 1,4 C 22,8 C 0,0 km/h (0 Bft)
23.09.2014 03:00 2,7 C 92 % 1022,6 hPa 0,0 l/m 0,0 km/h (0 Bft) S-SO 157 1,5 C 22,8 C 0,0 km/h (0 Bft)
23.09.2014 03:10 2,6 C 92 % 1022,5 hPa 0,0 l/m 0,0 km/h (0 Bft) S-SO 157 1,4 C 22,8 C 0,0 km/h (0 Bft)
23.09.2014 03:20 2,6 C 92 % 1022,5 hPa 0,0 l/m 0,0 km/h (0 Bft) S-SO 157 1,4 C 22,8 C 0,0 km/h (0 Bft)
23.09.2014 03:30 2,1 C 92 % 1022,2 hPa 0,0 l/m 0,0 km/h (0 Bft) S-SO 157 0,9 C 22,8 C 0,0 km/h (0 Bft)
23.09.2014 03:40 2,0 C 92 % 1022,2 hPa 0,0 l/m 0,0 km/h (0 Bft) S-SO 157 0,8 C 22,8 C 0,0 km/h (0 Bft)
23.09.2014 03:50 1,6 C 93 % 1022,2 hPa 0,0 l/m 0,0 km/h (0 Bft) S-SO 157 0,6 C 22,8 C 0,0 km/h (0 Bft)
23.09.2014 04:00 1,3 C 92 % 1022,2 hPa 0,0 l/m 0,0 km/h (0 Bft) S-SO 157 0,1 C 22,8 C 0,0 km/h (0 Bft)
23.09.2014 04:10 1,3 C 93 % 1022,1 hPa 0,0 l/m 0,0 km/h (0 Bft) S-SO 157 0,3 C 22,8 C 0,0 km/h (0 Bft)
23.09.2014 04:20 2,2 C 93 % 1022,1 hPa 0,0 l/m 0,0 km/h (0 Bft) S-SO 157 1,2 C 22,8 C 0,0 km/h (0 Bft)
23.09.2014 04:30 2,3 C 94 % 1022,2 hPa 0,0 l/m 0,0 km/h (0 Bft) S-SO 157 1,4 C 22,8 C 0,0 km/h (0 Bft)
23.09.2014 04:40 2,4 C 94 % 1022,2 hPa 0,0 l/m 0,0 km/h (0 Bft) S-SO 157 1,5 C 22,8 C 0,0 km/h (0 Bft)
23.09.2014 04:50 2,2 C 94 % 1022,1 hPa 0,0 l/m 0,0 km/h (0 Bft) S-SO 157 1,3 C 22,8 C 0,0 km/h (0 Bft)
23.09.2014 05:00 1,6 C 94 % 1022,1 hPa 0,0 l/m 0,0 km/h (0 Bft) S-SO 157 0,7 C 22,8 C 0,0 km/h (0 Bft)
23.09.2014 05:10 1,4 C 94 % 1022,1 hPa 0,0 l/m 0,0 km/h (0 Bft) S-SO 157 0,5 C 22,8 C 0,0 km/h (0 Bft)
23.09.2014 05:20 1,5 C 94 % 1022,1 hPa 0,0 l/m 0,0 km/h (0 Bft) S-SO 157 0,6 C 22,8 C 0,0 km/h (0 Bft)
23.09.2014 05:30 1,1 C 94 % 1022,2 hPa 0,0 l/m 0,0 km/h (0 Bft) S-SO 157 0,2 C 22,8 C 0,0 km/h (0 Bft)
23.09.2014 05:40 0,9 C 94 % 1022,2 hPa 0,0 l/m 0,0 km/h (0 Bft) S-SO 157 0,0 C 22,8 C 0,0 km/h (0 Bft)
23.09.2014 05:50 0,7 C 94 % 1022,2 hPa 0,0 l/m 0,0 km/h (0 Bft) S-SO 157 -0,2 C 22,8 C 0,0 km/h (0 Bft)
23.09.2014 06:00 0,6 C 94 % 1022,2 hPa 0,0 l/m 0,0 km/h (0 Bft) S-SO 157 -0,3 C 22,8 C 0,0 km/h (0 Bft)
23.09.2014 06:10 0,4 C 94 % 1022,2 hPa 0,0 l/m 0,0 km/h (0 Bft) S-SO 157 -0,5 C 22,8 C 0,0 km/h (0 Bft)
23.09.2014 06:19 0,4 C 94 % 1022,2 hPa 0,0 l/m 0,0 km/h (0 Bft) S-SO 157 -0,5 C 22,8 C 0,0 km/h (0 Bft)
23.09.2014 06:30 0,7 C 94 % 1022,1 hPa 0,0 l/m 0,0 km/h (0 Bft) S-SO 157 -0,2 C 22,8 C 0,0 km/h (0 Bft)
23.09.2014 06:40 0,5 C 94 % 1022,1 hPa 0,0 l/m 0,0 km/h (0 Bft) S-SO 157 -0,4 C 22,8 C 0,0 km/h (0 Bft)
23.09.2014 06:50 0,5 C 94 % 1022,2 hPa 0,0 l/m 0,0 km/h (0 Bft) S-SO 157 -0,4 C 22,8 C 0,0 km/h (0 Bft)
23.09.2014 07:00 0,8 C 94 % 1022,2 hPa 0,0 l/m 0,0 km/h (0 Bft) S-SO 157 -0,1 C 22,8 C 0,0 km/h (0 Bft)
23.09.2014 07:10 0,9 C 94 % 1022,4 hPa 0,0 l/m 0,0 km/h (0 Bft) S-SO 157 0,0 C 22,8 C 0,0 km/h (0 Bft)
23.09.2014 07:20 0,8 C 95 % 1022,4 hPa 0,0 l/m 0,0 km/h (0 Bft) S-SO 157 0,1 C 22,8 C 0,0 km/h (0 Bft)
23.09.2014 07:30 0,8 C 95 % 1022,6 hPa 0,0 l/m 0,0 km/h (0 Bft) S-SO 157 0,1 C 22,8 C 0,0 km/h (0 Bft)
23.09.2014 07:40 0,7 C 95 % 1022,6 hPa 0,0 l/m 0,0 km/h (0 Bft) S-SO 157 -0,0 C 22,8 C 0,0 km/h (0 Bft)
23.09.2014 07:50 0,8 C 95 % 1022,8 hPa 0,0 l/m 0,0 km/h (0 Bft) S-SO 157 0,1 C 22,8 C 0,0 km/h (0 Bft)
23.09.2014 08:00 0,9 C 95 % 1022,8 hPa 0,0 l/m 0,0 km/h (0 Bft) S-SO 157 0,2 C 22,8 C 0,0 km/h (0 Bft)
23.09.2014 08:10 0,9 C 95 % 1023,0 hPa 0,0 l/m 0,0 km/h (0 Bft) S-SO 157 0,2 C 22,8 C 0,0 km/h (0 Bft)
23.09.2014 08:20 1,3 C 95 % 1023,0 hPa 0,0 l/m 0,0 km/h (0 Bft) S-SO 157 0,6 C 22,8 C 0,0 km/h (0 Bft)
23.09.2014 08:30 1,5 C 95 % 1023,1 hPa 0,0 l/m 0,0 km/h (0 Bft) S-SO 157 0,8 C 22,8 C 0,0 km/h (0 Bft)
23.09.2014 08:40 1,9 C 95 % 1023,1 hPa 0,0 l/m 0,0 km/h (0 Bft) S-SO 157 1,2 C 22,8 C 0,0 km/h (0 Bft)
23.09.2014 08:50 2,6 C 95 % 1023,2 hPa 0,0 l/m 0,0 km/h (0 Bft) S-SO 157 1,9 C 22,8 C 0,0 km/h (0 Bft)
23.09.2014 09:00 2,8 C 95 % 1023,2 hPa 0,0 l/m 0,0 km/h (0 Bft) S-SO 157 2,1 C 22,8 C 0,0 km/h (0 Bft)
23.09.2014 09:10 7,0 C 92 % 1023,2 hPa 0,0 l/m 0,0 km/h (0 Bft) S-SO 157 5,8 C 22,8 C 0,0 km/h (0 Bft)
23.09.2014 09:18 5,7 C 92 % 1023,2 hPa 0,0 l/m 0,0 km/h (0 Bft) S-SO 157 4,5 C 22,8 C 0,0 km/h (0 Bft)
23.09.2014 09:20 5,7 C 92 % 1023,2 hPa 0,0 l/m 0,0 km/h (0 Bft) S-SO 157 4,5 C 22,8 C 0,0 km/h (0 Bft)
23.09.2014 09:30 9,8 C 86 % 1023,0 hPa 0,0 l/m 0,0 km/h (0 Bft) S-SO 157 7,6 C 22,8 C 0,0 km/h (0 Bft)
23.09.2014 09:40 12,2 C 79 % 1023,0 hPa 0,0 l/m 0,0 km/h (0 Bft) S-SO 157 8,7 C 22,8 C 0,0 km/h (0 Bft)
23.09.2014 09:50 12,2 C 75 % 1022,9 hPa 0,0 l/m 0,0 km/h (0 Bft) S-SO 157 7,9 C 22,8 C 0,0 km/h (0 Bft)
23.09.2014 10:00 12,6 C 63 % 1022,9 hPa 0,0 l/m 0,0 km/h (0 Bft) S-SO 157 5,7 C 22,8 C 0,0 km/h (0 Bft)
23.09.2014 10:10 13,3 C 58 % 1023,1 hPa 0,0 l/m 0,0 km/h (0 Bft) S-SO 157 5,2 C 22,8 C 0,0 km/h (0 Bft)
23.09.2014 10:20 13,9 C 51 % 1023,1 hPa 0,0 l/m 0,0 km/h (0 Bft) S-SO 157 3,9 C 22,8 C 0,0 km/h (0 Bft)
23.09.2014 10:30 14,2 C 46 % 1023,4 hPa 0,0 l/m 0,0 km/h (0 Bft) S-SO 157 2,8 C 22,8 C 0,0 km/h (0 Bft)
23.09.2014 10:40 14,4 C 45 % 1023,4 hPa 0,0 l/m 0,0 km/h (0 Bft) S-SO 157 2,6 C 22,8 C 0,0 km/h (0 Bft)
23.09.2014 10:50 13,8 C 45 % 1023,7 hPa 0,0 l/m 0,0 km/h (0 Bft) S-SO 157 2,1 C 22,8 C 0,0 km/h (0 Bft)
23.09.2014 11:00 14,2 C 43 % 1023,7 hPa 0,0 l/m 0,0 km/h (0 Bft) S-SO 157 1,8 C 22,8 C 0,0 km/h (0 Bft)
23.09.2014 11:10 14,9 C 43 % 1023,8 hPa 0,0 l/m 0,0 km/h (0 Bft) S-SO 157 2,4 C 22,8 C 0,0 km/h (0 Bft)
23.09.2014 11:20 15,3 C 42 % 1023,8 hPa 0,0 l/m 0,0 km/h (0 Bft) S-SO 157 2,5 C 22,8 C 0,0 km/h (0 Bft)
23.09.2014 11:30 15,1 C 36 % 1023,9 hPa 0,0 l/m 0,0 km/h (0 Bft) S-SO 157 0,1 C 22,8 C 0,0 km/h (0 Bft)
23.09.2014 11:40 15,8 C 37 % 1023,9 hPa 0,0 l/m 0,0 km/h (0 Bft) S-SO 157 1,1 C 22,8 C 0,0 km/h (0 Bft)
23.09.2014 11:50 15,7 C 36 % 1023,8 hPa 0,0 l/m 0,0 km/h (0 Bft) S-SO 157 0,7 C 22,8 C 0,0 km/h (0 Bft)
23.09.2014 12:00 16,1 C 39 % 1023,8 hPa 0,0 l/m 0,0 km/h (0 Bft) S-SO 157 2,1 C 22,8 C 0,0 km/h (0 Bft)
23.09.2014 12:10 16,2 C 39 % 1023,8 hPa 0,0 l/m 0,0 km/h (0 Bft) S-SO 157 2,2 C 22,8 C 0,0 km/h (0 Bft)
23.09.2014 12:18 14,6 C 41 % 1023,8 hPa 0,0 l/m 0,0 km/h (0 Bft) S-SO 157 1,5 C 22,8 C 0,0 km/h (0 Bft)
23.09.2014 12:20 14,6 C 41 % 1023,8 hPa 0,0 l/m 0,0 km/h (0 Bft) S-SO 157 1,5 C 22,8 C 0,0 km/h (0 Bft)
23.09.2014 12:30 16,0 C 39 % 1023,7 hPa 0,0 l/m 0,0 km/h (0 Bft) S-SO 157 2,1 C 22,8 C 0,0 km/h (0 Bft)
23.09.2014 12:40 16,1 C 42 % 1023,7 hPa 0,0 l/m 0,0 km/h (0 Bft) S-SO 157 3,2 C 22,8 C 0,0 km/h (0 Bft)
23.09.2014 12:50 16,1 C 40 % 1023,6 hPa 0,0 l/m 0,0 km/h (0 Bft) S-SO 157 2,5 C 22,8 C 0,0 km/h (0 Bft)
23.09.2014 13:00 16,8 C 42 % 1023,6 hPa 0,0 l/m 0,0 km/h (0 Bft) S-SO 157 3,8 C 22,8 C 0,0 km/h (0 Bft)
23.09.2014 13:10 16,1 C 41 % 1023,6 hPa 0,0 l/m 0,0 km/h (0 Bft) S-SO 157 2,8 C 22,8 C 0,0 km/h (0 Bft)
23.09.2014 13:20 16,1 C 41 % 1023,6 hPa 0,0 l/m 0,0 km/h (0 Bft) S-SO 157 2,8 C 22,8 C 0,0 km/h (0 Bft)
23.09.2014 13:30 16,1 C 44 % 1023,3 hPa 0,0 l/m 0,0 km/h (0 Bft) S-SO 157 3,8 C 22,8 C 0,0 km/h (0 Bft)
23.09.2014 13:40 15,5 C 45 % 1023,3 hPa 0,0 l/m 0,0 km/h (0 Bft) S-SO 157 3,6 C 22,8 C 0,0 km/h (0 Bft)
23.09.2014 13:50 15,7 C 46 % 1023,2 hPa 0,0 l/m 0,0 km/h (0 Bft) S-SO 157 4,1 C 22,8 C 0,0 km/h (0 Bft)
23.09.2014 14:00 16,1 C 44 % 1023,2 hPa 0,0 l/m 0,0 km/h (0 Bft) S-SO 157 3,8 C 22,8 C 0,0 km/h (0 Bft)
23.09.2014 14:10 15,2 C 45 % 1023,2 hPa 0,0 l/m 0,0 km/h (0 Bft) S-SO 157 3,4 C 22,8 C 0,0 km/h (0 Bft)
23.09.2014 14:20 15,6 C 47 % 1023,2 hPa 0,0 l/m 0,0 km/h (0 Bft) S-SO 157 4,3 C 22,8 C 0,0 km/h (0 Bft)
23.09.2014 14:30 16,0 C 43 % 1023,0 hPa 0,0 l/m 0,0 km/h (0 Bft) S-SO 157 3,4 C 22,8 C 0,0 km/h (0 Bft)
23.09.2014 14:40 15,4 C 45 % 1023,0 hPa 0,0 l/m 0,0 km/h (0 Bft) S-SO 157 3,5 C 22,8 C 0,0 km/h (0 Bft)
23.09.2014 14:50 15,9 C 45 % 1022,6 hPa 0,0 l/m 0,0 km/h (0 Bft) S-SO 157 4,0 C 22,8 C 0,0 km/h (0 Bft)
23.09.2014 15:00 15,5 C 45 % 1022,6 hPa 0,0 l/m 0,0 km/h (0 Bft) S-SO 157 3,6 C 22,8 C 0,0 km/h (0 Bft)
23.09.2014 15:10 15,6 C 46 % 1022,6 hPa 0,0 l/m 0,0 km/h (0 Bft) S-SO 157 4,0 C 22,8 C 0,0 km/h (0 Bft)
23.09.2014 15:18 16,4 C 43 % 1022,6 hPa 0,0 l/m 0,0 km/h (0 Bft) S-SO 157 3,8 C 22,8 C 0,0 km/h (0 Bft)
23.09.2014 15:20 16,4 C 43 % 1022,6 hPa 0,0 l/m 0,0 km/h (0 Bft) S-SO 157 3,8 C 22,8 C 0,0 km/h (0 Bft)
23.09.2014 15:30 16,2 C 44 % 1022,4 hPa 0,0 l/m 0,0 km/h (0 Bft) S-SO 157 3,9 C 22,8 C 0,0 km/h (0 Bft)
23.09.2014 15:40 15,7 C 44 % 1022,4 hPa 0,0 l/m 0,0 km/h (0 Bft) S-SO 157 3,5 C 22,8 C 0,0 km/h (0 Bft)
23.09.2014 15:50 15,3 C 45 % 1022,0 hPa 0,0 l/m 0,0 km/h (0 Bft) S-SO 157 3,4 C 22,8 C 0,0 km/h (0 Bft)
23.09.2014 16:00 15,3 C 46 % 1022,0 hPa 0,0 l/m 0,0 km/h (0 Bft) S-SO 157 3,8 C 22,8 C 0,0 km/h (0 Bft)
23.09.2014 16:10 15,3 C 46 % 1021,6 hPa 0,0 l/m 0,0 km/h (0 Bft) S-SO 157 3,8 C 22,8 C 0,0 km/h (0 Bft)
23.09.2014 16:20 15,0 C 47 % 1021,6 hPa 0,0 l/m 0,0 km/h (0 Bft) S-SO 157 3,8 C 22,8 C 0,0 km/h (0 Bft)
23.09.2014 16:30 15,3 C 46 % 1021,1 hPa 0,0 l/m 0,0 km/h (0 Bft) S-SO 157 3,8 C 22,8 C 0,0 km/h (0 Bft)
23.09.2014 16:40 14,6 C 47 % 1021,1 hPa 0,0 l/m 0,0 km/h (0 Bft) S-SO 157 3,4 C 22,8 C 0,0 km/h (0 Bft)
23.09.2014 16:50 14,2 C 49 % 1020,7 hPa 0,0 l/m 0,0 km/h (0 Bft) S-SO 157 3,6 C 22,8 C 0,0 km/h (0 Bft)
23.09.2014 17:00 13,5 C 51 % 1020,7 hPa 0,0 l/m 0,0 km/h (0 Bft) S-SO 157 3,6 C 22,8 C 0,0 km/h (0 Bft)
23.09.2014 17:10 12,9 C 56 % 1020,2 hPa 0,0 l/m 0,0 km/h (0 Bft) S-SO 157 4,3 C 22,8 C 0,0 km/h (0 Bft)
23.09.2014 17:20 12,5 C 58 % 1020,2 hPa 0,0 l/m 0,0 km/h (0 Bft) S-SO 157 4,5 C 22,8 C 0,0 km/h (0 Bft)
23.09.2014 17:30 12,3 C 58 % 1020,1 hPa 0,0 l/m 0,0 km/h (0 Bft) S-SO 157 4,3 C 22,8 C 0,0 km/h (0 Bft)
23.09.2014 17:40 12,1 C 59 % 1020,1 hPa 0,0 l/m 0,0 km/h (0 Bft) S-SO 157 4,3 C 22,8 C 0,0 km/h (0 Bft)
23.09.2014 17:50 11,8 C 60 % 1019,9 hPa 0,0 l/m 0,0 km/h (0 Bft) S-SO 157 4,3 C 22,8 C 0,0 km/h (0 Bft)
23.09.2014 18:00 11,5 C 61 % 1019,9 hPa 0,0 l/m 0,0 km/h (0 Bft) S-SO 157 4,2 C 22,8 C 0,0 km/h (0 Bft)
23.09.2014 18:10 11,0 C 63 % 1019,7 hPa 0,0 l/m 0,0 km/h (0 Bft) S-SO 157 4,2 C 22,8 C 0,0 km/h (0 Bft)
23.09.2014 18:18 10,9 C 64 % 1019,7 hPa 0,0 l/m 0,0 km/h (0 Bft) S-SO 157 4,4 C 22,8 C 0,0 km/h (0 Bft)
23.09.2014 18:20 10,9 C 64 % 1019,7 hPa 0,0 l/m 0,0 km/h (0 Bft) S-SO 157 4,4 C 22,8 C 0,0 km/h (0 Bft)
23.09.2014 18:30 10,7 C 64 % 1019,6 hPa 0,0 l/m 0,0 km/h (0 Bft) S-SO 157 4,2 C 22,8 C 0,0 km/h (0 Bft)
23.09.2014 18:40 10,0 C 66 % 1019,6 hPa 0,0 l/m 0,0 km/h (0 Bft) S-SO 157 3,9 C 22,8 C 0,0 km/h (0 Bft)
23.09.2014 18:50 9,6 C 67 % 1019,4 hPa 0,0 l/m 0,0 km/h (0 Bft) S-SO 157 3,8 C 22,8 C 0,0 km/h (0 Bft)
23.09.2014 19:00 9,4 C 68 % 1019,4 hPa 0,0 l/m 0,0 km/h (0 Bft) S-SO 157 3,8 C 22,8 C 0,0 km/h (0 Bft)
23.09.2014 19:10 9,1 C 69 % 1019,4 hPa 0,0 l/m 0,0 km/h (0 Bft) S-SO 157 3,7 C 22,8 C 0,0 km/h (0 Bft)
23.09.2014 19:20 8,7 C 70 % 1019,4 hPa 0,0 l/m 0,0 km/h (0 Bft) S-SO 157 3,5 C 22,8 C 0,0 km/h (0 Bft)
23.09.2014 19:30 8,2 C 72 % 1019,4 hPa 0,0 l/m 0,0 km/h (0 Bft) S-SO 157 3,5 C 22,8 C 0,0 km/h (0 Bft)
23.09.2014 19:40 7,7 C 75 % 1019,4 hPa 0,0 l/m 0,0 km/h (0 Bft) S-SO 157 3,6 C 22,8 C 0,0 km/h (0 Bft)
23.09.2014 19:50 7,2 C 76 % 1019,5 hPa 0,0 l/m 0,0 km/h (0 Bft) S-SO 157 3,3 C 22,8 C 0,0 km/h (0 Bft)
23.09.2014 20:00 6,7 C 78 % 1019,5 hPa 0,0 l/m 0,0 km/h (0 Bft) S-SO 157 3,1 C 22,8 C 0,0 km/h (0 Bft)
23.09.2014 20:10 6,1 C 78 % 1019,6 hPa 0,0 l/m 0,0 km/h (0 Bft) S-SO 157 2,6 C 22,8 C 0,0 km/h (0 Bft)
23.09.2014 20:20 6,0 C 80 % 1019,6 hPa 0,0 l/m 0,0 km/h (0 Bft) S-SO 157 2,8 C 22,8 C 0,0 km/h (0 Bft)
23.09.2014 20:30 5,3 C 81 % 1019,6 hPa 0,0 l/m 0,0 km/h (0 Bft) S-SO 157 2,3 C 22,8 C 0,0 km/h (0 Bft)
23.09.2014 20:40 4,9 C 81 % 1019,6 hPa 0,0 l/m 0,0 km/h (0 Bft) S-SO 157 1,9 C 22,8 C 0,0 km/h (0 Bft)
23.09.2014 20:50 4,5 C 82 % 1019,6 hPa 0,0 l/m 0,0 km/h (0 Bft) S-SO 157 1,7 C 22,8 C 0,0 km/h (0 Bft)
23.09.2014 21:00 4,2 C 83 % 1019,6 hPa 0,0 l/m 0,0 km/h (0 Bft) S-SO 157 1,6 C 22,8 C 0,0 km/h (0 Bft)
23.09.2014 21:10 4,2 C 83 % 1019,8 hPa 0,0 l/m 0,0 km/h (0 Bft) S-SO 157 1,6 C 22,8 C 0,0 km/h (0 Bft)
23.09.2014 21:18 4,1 C 84 % 1019,8 hPa 0,0 l/m 0,0 km/h (0 Bft) S-SO 157 1,6 C 22,8 C 0,0 km/h (0 Bft)
23.09.2014 21:20 4,1 C 84 % 1019,8 hPa 0,0 l/m 0,0 km/h (0 Bft) S-SO 157 1,6 C 22,8 C 0,0 km/h (0 Bft)
23.09.2014 21:30 4,3 C 85 % 1019,4 hPa 0,0 l/m 0,0 km/h (0 Bft) S-SO 157 2,0 C 22,8 C 0,0 km/h (0 Bft)
23.09.2014 21:40 3,6 C 85 % 1019,4 hPa 0,0 l/m 0,0 km/h (0 Bft) S-SO 157 1,3 C 22,8 C 0,0 km/h (0 Bft)
23.09.2014 21:50 3,5 C 86 % 1019,5 hPa 0,0 l/m 0,0 km/h (0 Bft) S-SO 157 1,4 C 22,8 C 0,0 km/h (0 Bft)
23.09.2014 22:00 4,3 C 87 % 1019,5 hPa 0,0 l/m 0,0 km/h (0 Bft) S-SO 157 2,3 C 22,8 C 0,0 km/h (0 Bft)
23.09.2014 22:10 3,2 C 87 % 1019,6 hPa 0,0 l/m 0,0 km/h (0 Bft) S-SO 157 1,2 C 22,8 C 0,0 km/h (0 Bft)
23.09.2014 22:20 3,9 C 88 % 1019,6 hPa 0,0 l/m 0,0 km/h (0 Bft) S-SO 157 2,1 C 22,8 C 0,0 km/h (0 Bft)
23.09.2014 22:30 4,1 C 89 % 1019,6 hPa 0,0 l/m 0,0 km/h (0 Bft) S-SO 157 2,5 C 22,8 C 0,0 km/h (0 Bft)
23.09.2014 22:40 4,2 C 89 % 1019,6 hPa 0,0 l/m 0,0 km/h (0 Bft) S-SO 157 2,6 C 22,8 C 0,0 km/h (0 Bft)
23.09.2014 22:50 3,8 C 90 % 1019,6 hPa 0,0 l/m 0,0 km/h (0 Bft) S-SO 157 2,3 C 22,8 C 0,0 km/h (0 Bft)
23.09.2014 23:00 4,1 C 90 % 1019,6 hPa 0,0 l/m 0,0 km/h (0 Bft) S-SO 157 2,6 C 22,8 C 0,0 km/h (0 Bft)
23.09.2014 23:10 3,8 C 90 % 1019,4 hPa 0,0 l/m 0,0 km/h (0 Bft) S-SO 157 2,3 C 22,8 C 0,0 km/h (0 Bft)
23.09.2014 23:20 4,0 C 90 % 1019,4 hPa 0,0 l/m 0,0 km/h (0 Bft) S-SO 157 2,5 C 22,8 C 0,0 km/h (0 Bft)
23.09.2014 23:30 3,8 C 91 % 1019,5 hPa 0,0 l/m 0,0 km/h (0 Bft) S-SO 157 2,5 C 22,8 C 0,0 km/h (0 Bft)
23.09.2014 23:40 3,6 C 91 % 1019,5 hPa 0,0 l/m 0,0 km/h (0 Bft) S-SO 157 2,3 C 22,8 C 0,0 km/h (0 Bft)
23.09.2014 23:50 3,6 C 91 % 1019,4 hPa 0,0 l/m 0,0 km/h (0 Bft) S-SO 157 2,3 C 22,8 C 0,0 km/h (0 Bft)
_ Min-Zeit 06:19 11:50 23:50 - 23:50 - - 06:19 23:50 23:50
Minimum _ 0,4 C 36 % 1019,4 hPa - 0,0 km/h (0 Bft) - - -0,5 C 22,8 C 0,0 km/h (0 Bft)
_ Max-Zeit 13:00 09:00 11:40 23:50 23:50 - - 09:40 23:50 23:50
Maximum _ 16,8 C 95 % 1023,9 hPa 0,0 l/m 0,0 km/h
S-SO (0 Bft)
- - 8,7 C 22,8 C 0,0 km/h
S-SO (0 Bft)
Durchschnitt _ 7,7 C 73 % 1021,8 hPa #0,0 l/m 0,0 km/h (0 Bft) - - - 2,5 C 22,8 C 0,0 km/h (0 Bft)